createdAt,value
2019-05-30T00:00:13.313Z,74.88
2019-05-30T00:05:02.705Z,75.18
2019-05-30T00:10:02.911Z,75.46
2019-05-30T00:15:01.273Z,75.68
2019-05-30T00:20:01.371Z,75.92
2019-05-30T00:25:02.453Z,76.72
2019-05-30T00:30:01.640Z,77.03
2019-05-30T00:35:02.113Z,77.42
2019-05-30T00:40:02.137Z,77.35
2019-05-30T00:45:09.206Z,77.32
2019-05-30T00:50:02.747Z,77.2
2019-05-30T00:55:02.978Z,77.13
2019-05-30T01:00:01.104Z,77.21
2019-05-30T01:05:01.412Z,77.12
2019-05-30T01:10:01.632Z,77.41
2019-05-30T01:15:03.298Z,77.39
2019-05-30T01:20:01.488Z,77.37
2019-05-30T01:25:01.597Z,77.51
2019-05-30T01:30:01.930Z,77.55
2019-05-30T01:35:02.189Z,77.35
2019-05-30T01:40:01.900Z,77.49
2019-05-30T01:45:02.569Z,77.65
2019-05-30T01:50:02.491Z,77.78
2019-05-30T01:55:02.749Z,78.06
2019-05-30T02:00:06.407Z,78
2019-05-30T02:05:01.556Z,77.73
2019-05-30T02:10:01.645Z,77.58
2019-05-30T02:15:01.738Z,77.51
2019-05-30T02:20:01.924Z,77.26
2019-05-30T02:25:02.061Z,77.19
2019-05-30T02:30:03.459Z,77.04
2019-05-30T02:35:03.252Z,76.89
2019-05-30T02:40:05.014Z,76.43
2019-05-30T02:45:03.431Z,76.4
2019-05-30T02:50:01.663Z,76.31
2019-05-30T02:55:02.109Z,75.94
2019-05-30T03:00:04.527Z,75.87
2019-05-30T03:05:01.929Z,75.92
2019-05-30T03:10:02.642Z,75.84
2019-05-30T03:15:02.528Z,75.71
2019-05-30T03:20:04.938Z,75.27
2019-05-30T03:25:02.945Z,75.18
2019-05-30T03:30:05.133Z,74.99
2019-05-30T03:35:04.477Z,74.88
2019-05-30T03:40:01.635Z,75.01
2019-05-30T03:45:01.770Z,74.84
2019-05-30T03:50:01.406Z,74.93
2019-05-30T03:55:01.554Z,74.93
2019-05-30T04:00:01.662Z,74.74
2019-05-30T04:05:01.816Z,75.15
2019-05-30T04:10:01.924Z,75.33
2019-05-30T04:15:02.056Z,75.82
2019-05-30T04:20:01.191Z,76.39
2019-05-30T04:25:01.302Z,76.74
2019-05-30T04:30:01.425Z,77.09
2019-05-30T04:35:01.632Z,77.96
2019-05-30T04:40:01.628Z,78.45
2019-05-30T04:45:01.813Z,79.82
2019-05-30T04:50:01.929Z,80.68
2019-05-30T04:55:01.737Z,80.41
2019-05-30T05:00:01.920Z,81.98
2019-05-30T05:05:02.137Z,80.66
2019-05-30T05:10:01.272Z,80.81
2019-05-30T05:15:01.479Z,80.83
2019-05-30T05:20:01.613Z,80.12
2019-05-30T05:25:01.729Z,80.79
2019-05-30T05:30:01.833Z,82.03
2019-05-30T05:35:01.941Z,81
2019-05-30T05:40:02.092Z,81.03
2019-05-30T05:45:01.194Z,82.57
2019-05-30T05:50:01.295Z,80.39
2019-05-30T05:55:01.417Z,79.21
2019-05-30T06:00:01.547Z,78.45
2019-05-30T06:05:01.644Z,77.25
2019-05-30T06:10:01.773Z,76.04
2019-05-30T06:15:02.330Z,75.43
2019-05-30T06:20:01.702Z,75.23
2019-05-30T06:25:01.886Z,75.3
2019-05-30T06:30:01.116Z,74.52
2019-05-30T06:35:01.232Z,74.08
2019-05-30T06:40:01.383Z,73.56
2019-05-30T06:45:01.512Z,73.01
2019-05-30T06:50:01.655Z,73.32
2019-05-30T06:55:01.784Z,73.57
2019-05-30T07:00:01.953Z,73.83
2019-05-30T07:05:02.574Z,73.87
2019-05-30T07:10:01.189Z,74.1
2019-05-30T07:15:01.320Z,73.96
2019-05-30T07:20:01.439Z,73.97
2019-05-30T07:25:01.559Z,73.83
2019-05-30T07:30:01.669Z,73.94
2019-05-30T07:35:06.820Z,73.56
2019-05-30T07:40:01.706Z,73.38
2019-05-30T07:45:01.989Z,72.59
2019-05-30T07:50:02.104Z,71.94
2019-05-30T07:55:01.206Z,71.63
2019-05-30T08:00:01.361Z,71.59
2019-05-30T08:05:01.467Z,71.95
2019-05-30T08:10:01.559Z,71.62
2019-05-30T08:15:01.705Z,72.09
2019-05-30T08:20:01.882Z,74.27
2019-05-30T08:25:02.000Z,72.75
2019-05-30T08:30:01.131Z,73.46
2019-05-30T08:35:01.233Z,77.42
2019-05-30T08:40:01.378Z,74.79
2019-05-30T08:45:01.517Z,77.3
2019-05-30T08:50:01.610Z,72.95
2019-05-30T08:55:01.702Z,72.39
2019-05-30T09:00:01.855Z,73.62
2019-05-30T09:05:06.548Z,71.71
2019-05-30T09:10:02.088Z,76.13
2019-05-30T09:15:01.218Z,73.49
2019-05-30T09:20:01.343Z,71.92
2019-05-30T09:25:01.475Z,73.08
2019-05-30T09:30:01.605Z,72.99
2019-05-30T09:35:01.711Z,69.47
2019-05-30T09:40:01.890Z,69.75
2019-05-30T09:45:02.020Z,71.9
2019-05-30T09:50:03.796Z,73.62
2019-05-30T09:55:01.218Z,72.43
2019-05-30T10:00:01.390Z,74.18
2019-05-30T10:05:01.493Z,75.46
2019-05-30T10:10:01.579Z,76.03
2019-05-30T10:15:01.709Z,76.26
2019-05-30T10:20:02.080Z,73.39
2019-05-30T10:25:01.371Z,78.23
2019-05-30T10:30:01.566Z,74.6
2019-05-30T10:35:01.764Z,76.8
2019-05-30T10:40:01.963Z,75.56
2019-05-30T10:45:02.100Z,77.09
2019-05-30T10:50:01.219Z,73.63
2019-05-30T10:55:01.304Z,74.61
2019-05-30T11:00:01.463Z,75.13
2019-05-30T11:05:01.590Z,75.47
2019-05-30T11:10:01.728Z,75.58
2019-05-30T11:15:01.855Z,77.52
2019-05-30T11:20:02.019Z,80.03
2019-05-30T11:25:01.145Z,77.74
2019-05-30T11:30:01.283Z,78.46
2019-05-30T11:35:01.506Z,79.17
2019-05-30T11:40:01.725Z,78.29
2019-05-30T11:45:01.866Z,76.8
2019-05-30T11:50:01.972Z,75.56
2019-05-30T11:55:02.132Z,74.81
2019-05-30T12:00:01.287Z,75.65
2019-05-30T12:05:01.404Z,75.9
2019-05-30T12:10:01.532Z,78.48
2019-05-30T12:15:01.880Z,76.4
2019-05-30T12:20:02.050Z,80.96
2019-05-30T12:25:02.576Z,81.53
2019-05-30T12:30:02.659Z,78.54
2019-05-30T12:35:02.811Z,81.8
2019-05-30T12:40:03.233Z,81.05
2019-05-30T12:45:06.639Z,81.83
2019-05-30T12:50:01.500Z,79.87
2019-05-30T12:55:03.141Z,80.53
2019-05-30T13:00:01.422Z,78.91
2019-05-30T13:05:01.558Z,77.15
2019-05-30T13:10:01.690Z,75.95
2019-05-30T13:15:01.987Z,78.32
2019-05-30T13:20:01.494Z,78.81
2019-05-30T13:25:02.042Z,77.37
2019-05-30T13:30:02.298Z,77.8
2019-05-30T13:35:01.618Z,77.01
2019-05-30T13:40:01.829Z,77.55
2019-05-30T13:45:02.160Z,77.44
2019-05-30T13:50:02.986Z,80.7
2019-05-30T13:55:02.049Z,77.97
2019-05-30T14:00:01.869Z,77.63
2019-05-30T14:05:02.311Z,76.92
2019-05-30T14:10:02.409Z,77.34
2019-05-30T14:15:06.571Z,77.43
2019-05-30T14:20:03.005Z,79.25
2019-05-30T14:25:01.362Z,77.45
2019-05-30T14:30:03.004Z,76.23
2019-05-30T14:35:02.371Z,78.74
2019-05-30T14:40:02.660Z,84.31
2019-05-30T14:45:01.825Z,86.24
2019-05-30T14:50:01.927Z,87.56
2019-05-30T14:55:02.124Z,88.32
2019-05-30T15:00:01.267Z,88.82
2019-05-30T15:05:01.448Z,89.86
2019-05-30T15:10:01.574Z,89.26
2019-05-30T15:15:02.198Z,91.15
2019-05-30T15:20:01.498Z,89.49
2019-05-30T15:25:01.624Z,89.22
2019-05-30T15:30:01.760Z,87.35
2019-05-30T15:35:01.935Z,88.81
2019-05-30T15:40:01.177Z,87.8
2019-05-30T15:45:01.295Z,87.9
2019-05-30T15:50:01.394Z,85.99
2019-05-30T15:55:01.511Z,85.27
2019-05-30T16:00:01.643Z,85.78
2019-05-30T16:05:01.800Z,85.82
2019-05-30T16:10:01.889Z,85.85
2019-05-30T16:15:02.064Z,85.91
2019-05-30T16:20:01.161Z,85.3
2019-05-30T16:25:01.263Z,84.47
2019-05-30T16:30:01.504Z,83.45
2019-05-30T16:35:01.779Z,83.34
2019-05-30T16:40:06.348Z,83.81
2019-05-30T16:45:02.011Z,84.15
2019-05-30T16:50:01.200Z,83.76
2019-05-30T16:55:01.347Z,86.33
2019-05-30T17:00:01.523Z,83.26
2019-05-30T17:05:01.632Z,83.64
2019-05-30T17:10:01.763Z,81.22
2019-05-30T17:15:01.912Z,82.8
2019-05-30T17:20:02.022Z,80.56
2019-05-30T17:25:01.203Z,83.14
2019-05-30T17:30:01.422Z,83.48
2019-05-30T17:35:01.571Z,83.72
2019-05-30T17:40:01.657Z,83.14
2019-05-30T17:45:01.774Z,84.37
2019-05-30T17:50:01.869Z,84.11
2019-05-30T17:55:02.024Z,84.44
2019-05-30T18:00:01.157Z,84.42
2019-05-30T18:05:01.269Z,81.26
2019-05-30T18:10:01.410Z,82.63
2019-05-30T18:15:01.555Z,83.37
2019-05-30T18:20:01.656Z,84.27
2019-05-30T18:25:01.778Z,84.55
2019-05-30T18:30:01.913Z,85.24
2019-05-30T18:35:02.060Z,84.34
2019-05-30T18:40:01.160Z,83.9
2019-05-30T18:45:01.310Z,84.03
2019-05-30T18:50:01.410Z,83.84
2019-05-30T18:55:05.039Z,82.87
2019-05-30T19:00:01.834Z,83.38
2019-05-30T19:05:01.339Z,83.69
2019-05-30T19:10:01.465Z,83.4
2019-05-30T19:15:01.790Z,84.53
2019-05-30T19:20:02.034Z,85.43
2019-05-30T19:25:01.167Z,85.85
2019-05-30T19:30:01.288Z,86.66
2019-05-30T19:35:01.409Z,86.54
2019-05-30T19:40:01.534Z,86.8
2019-05-30T19:45:01.664Z,86.62
2019-05-30T19:50:01.862Z,86.59
2019-05-30T19:55:02.055Z,86.27
2019-05-30T20:00:01.182Z,86.42
2019-05-30T20:05:01.281Z,86.4
2019-05-30T20:10:02.010Z,86.15
2019-05-30T20:15:01.527Z,86.29
2019-05-30T20:20:01.691Z,86.24
2019-05-30T20:25:01.785Z,86.25
2019-05-30T20:30:01.917Z,86.27
2019-05-30T20:35:02.075Z,86.44
2019-05-30T20:40:01.198Z,86.4
2019-05-30T20:45:01.297Z,86.51
2019-05-30T20:50:01.382Z,86.65
2019-05-30T20:55:01.562Z,86.7
2019-05-30T21:00:01.656Z,86.88
2019-05-30T21:05:01.839Z,86.97
2019-05-30T21:10:02.119Z,87.19
2019-05-30T21:15:01.261Z,87.4
2019-05-30T21:20:01.374Z,87.83
2019-05-30T21:25:01.498Z,87.91
2019-05-30T21:30:01.698Z,88.17
2019-05-30T21:35:01.910Z,88.15
2019-05-30T21:40:02.042Z,88.59
2019-05-30T21:45:01.175Z,88.39
2019-05-30T21:50:01.292Z,88.6
2019-05-30T21:55:03.377Z,88.57
2019-05-30T22:00:01.881Z,88.73
2019-05-30T22:05:01.985Z,89.23
2019-05-30T22:10:02.140Z,89.31
2019-05-30T22:15:01.236Z,89.35
2019-05-30T22:20:01.332Z,89.26
2019-05-30T22:25:01.425Z,89.32
2019-05-30T22:30:01.675Z,89.33
2019-05-30T22:35:01.804Z,89.74
2019-05-30T22:40:01.929Z,89.91
2019-05-30T22:45:02.134Z,90.29
2019-05-30T22:50:01.278Z,90.44
2019-05-30T22:55:01.411Z,90.88
2019-05-30T23:00:01.543Z,90.82
2019-05-30T23:05:01.678Z,91.2
2019-05-30T23:10:01.795Z,91.33
2019-05-30T23:15:01.925Z,91.84
2019-05-30T23:20:02.027Z,92.64
2019-05-30T23:25:01.171Z,93.22
2019-05-30T23:30:01.256Z,94.06
2019-05-30T23:35:01.363Z,94.5
2019-05-30T23:40:01.493Z,94.61
2019-05-30T23:45:01.650Z,94.85
2019-05-30T23:50:01.751Z,94.98
2019-05-30T23:55:02.472Z,95.25
